createdAt,value
2022-11-26T00:00:31.881Z,89.60
2022-11-26T00:03:19.939Z,86.32
2022-11-26T00:05:51.494Z,85.43
2022-11-26T00:08:34.373Z,94.93
2022-11-26T00:11:02.420Z,93.60
2022-11-26T00:13:31.012Z,75.32
2022-11-26T00:15:58.306Z,77.45
2022-11-26T00:18:26.792Z,85.35
2022-11-26T00:20:56.850Z,73.95
2022-11-26T00:23:26.196Z,120.28
2022-11-26T00:25:57.112Z,128.25
2022-11-26T00:28:27.131Z,93.82
2022-11-26T00:30:56.189Z,105.07
2022-11-26T00:33:24.013Z,76.18
2022-11-26T00:35:55.670Z,224.00
2022-11-26T00:38:23.353Z,298.40
2022-11-26T00:40:50.608Z,98.60
2022-11-26T00:43:18.648Z,85.15
2022-11-26T00:45:47.762Z,234.15
2022-11-26T00:48:15.580Z,120.90
2022-11-26T00:50:47.670Z,70.07
2022-11-26T00:53:18.097Z,80.82
2022-11-26T00:55:48.408Z,78.43
2022-11-26T00:58:30.380Z,83.55
2022-11-26T01:00:59.305Z,96.63
2022-11-26T01:03:26.595Z,96.70
2022-11-26T01:05:57.146Z,77.70
2022-11-26T01:08:28.996Z,83.43
2022-11-26T01:10:57.361Z,67.78
2022-11-26T01:13:24.376Z,64.65
2022-11-26T01:15:51.787Z,76.15
2022-11-26T01:18:21.285Z,80.38
2022-11-26T01:20:49.078Z,107.75
2022-11-26T01:23:18.810Z,78.45
2022-11-26T01:25:47.334Z,93.50
2022-11-26T01:28:18.415Z,80.88
2022-11-26T01:30:46.204Z,76.85
2022-11-26T01:33:13.176Z,79.70
2022-11-26T01:35:40.468Z,103.82
2022-11-26T01:38:12.954Z,94.82
2022-11-26T01:40:54.180Z,87.30
2022-11-26T01:43:47.692Z,102.65
2022-11-26T01:46:20.218Z,87.45
2022-11-26T01:48:48.631Z,86.03
2022-11-26T01:51:26.785Z,88.85
2022-11-26T01:54:00.774Z,72.90
2022-11-26T01:57:07.493Z,77.73
2022-11-26T01:59:39.254Z,78.15
2022-11-26T02:02:06.574Z,85.90
2022-11-26T02:04:38.484Z,130.80
2022-11-26T02:07:06.229Z,93.68
2022-11-26T02:09:33.536Z,69.82
2022-11-26T02:12:01.054Z,78.10
2022-11-26T02:14:46.227Z,133.32
2022-11-26T02:20:27.896Z,92.38
2022-11-26T02:23:13.257Z,98.00
2022-11-26T02:26:12.940Z,75.78
2022-11-26T02:29:11.849Z,95.80
2022-11-26T02:32:13.827Z,62.83
2022-11-26T02:34:53.409Z,90.00
2022-11-26T02:37:27.876Z,83.75
2022-11-26T02:39:57.540Z,76.82
2022-11-26T02:42:28.922Z,76.07
2022-11-26T02:45:03.627Z,71.13
2022-11-26T02:47:32.602Z,83.57
2022-11-26T02:50:05.997Z,86.50
2022-11-26T02:52:35.217Z,76.13
2022-11-26T02:55:07.224Z,73.68
2022-11-26T02:57:42.227Z,98.55
2022-11-26T03:00:10.466Z,85.28
2022-11-26T03:03:22.361Z,84.68
2022-11-26T03:05:56.102Z,74.32
2022-11-26T03:08:24.046Z,85.57
2022-11-26T03:10:51.500Z,86.55
2022-11-26T03:13:18.510Z,77.03
2022-11-26T03:15:45.872Z,93.32
2022-11-26T03:18:12.830Z,82.07
2022-11-26T03:20:40.300Z,82.97
2022-11-26T03:23:07.559Z,82.70
2022-11-26T03:25:35.324Z,104.20
2022-11-26T03:28:02.771Z,79.40
2022-11-26T03:30:30.071Z,81.13
2022-11-26T03:32:57.099Z,76.32
2022-11-26T03:35:24.372Z,84.57
2022-11-26T03:37:53.872Z,83.40
2022-11-26T03:40:21.247Z,87.68
2022-11-26T03:42:48.313Z,75.57
2022-11-26T03:45:16.263Z,72.68
2022-11-26T03:47:43.297Z,70.57
2022-11-26T03:50:10.802Z,75.93
2022-11-26T03:52:37.758Z,89.22
2022-11-26T03:55:05.274Z,77.72
2022-11-26T03:57:32.256Z,147.75
2022-11-26T03:59:59.521Z,117.50
2022-11-26T04:02:26.566Z,86.47
2022-11-26T04:04:53.911Z,110.07
2022-11-26T04:07:20.950Z,113.32
2022-11-26T04:09:48.217Z,86.40
2022-11-26T04:12:15.161Z,95.00
2022-11-26T04:14:42.440Z,99.22
2022-11-26T04:17:09.455Z,101.68
2022-11-26T04:19:36.691Z,88.93
2022-11-26T04:22:03.785Z,69.07
2022-11-26T04:24:31.052Z,73.43
2022-11-26T04:26:58.017Z,80.13
2022-11-26T04:29:25.259Z,65.45
2022-11-26T04:31:52.237Z,83.78
2022-11-26T04:34:19.496Z,73.20
2022-11-26T04:36:46.496Z,72.90
2022-11-26T04:39:14.007Z,78.20
2022-11-26T04:41:42.865Z,67.25
2022-11-26T04:44:10.121Z,77.22
2022-11-26T04:46:37.119Z,82.32
2022-11-26T04:49:04.477Z,77.13
2022-11-26T04:51:31.568Z,88.68
2022-11-26T04:54:02.688Z,65.82
2022-11-26T04:56:30.314Z,65.72
2022-11-26T04:58:57.613Z,69.05
2022-11-26T05:01:24.703Z,67.63
2022-11-26T05:03:52.083Z,68.20
2022-11-26T05:06:19.088Z,63.45
2022-11-26T05:08:46.373Z,62.35
2022-11-26T05:11:13.578Z,69.38
2022-11-26T05:13:40.886Z,59.13
2022-11-26T05:16:08.040Z,57.90
2022-11-26T05:18:35.348Z,65.82
2022-11-26T05:21:05.826Z,57.67
2022-11-26T05:23:33.250Z,67.70
2022-11-26T05:26:00.258Z,61.53
2022-11-26T05:28:27.524Z,58.40
2022-11-26T05:30:59.819Z,62.78
2022-11-26T05:33:27.364Z,63.35
2022-11-26T05:35:54.370Z,59.95
2022-11-26T05:38:22.285Z,58.95
2022-11-26T05:40:49.410Z,65.50
2022-11-26T05:43:16.667Z,66.97
2022-11-26T05:45:43.852Z,60.85
2022-11-26T05:48:11.193Z,65.18
2022-11-26T05:50:38.359Z,67.60
2022-11-26T05:53:05.727Z,163.30
2022-11-26T05:55:32.837Z,98.65
2022-11-26T05:58:00.287Z,98.70
2022-11-26T06:00:27.475Z,86.80
2022-11-26T06:02:54.860Z,76.75
2022-11-26T06:05:22.248Z,64.00
2022-11-26T06:07:49.786Z,61.63
2022-11-26T06:10:17.057Z,65.10
2022-11-26T06:12:44.503Z,61.97
2022-11-26T06:15:11.503Z,61.03
2022-11-26T06:17:38.816Z,58.50
2022-11-26T06:20:06.789Z,65.60
2022-11-26T06:22:41.950Z,72.05
2022-11-26T06:25:10.635Z,69.45
2022-11-26T06:27:38.158Z,65.70
2022-11-26T06:30:07.758Z,72.43
2022-11-26T06:32:35.339Z,62.75
2022-11-26T06:35:02.278Z,72.53
2022-11-26T06:37:29.739Z,59.03
2022-11-26T06:39:56.636Z,58.25
2022-11-26T06:42:23.954Z,68.97
2022-11-26T06:44:50.951Z,62.42
2022-11-26T06:47:18.193Z,64.63
2022-11-26T06:49:45.210Z,67.00
2022-11-26T06:52:13.650Z,74.35
2022-11-26T06:54:40.772Z,64.47
2022-11-26T06:57:08.717Z,71.90
2022-11-26T06:59:35.726Z,69.93
2022-11-26T07:02:03.066Z,76.47
2022-11-26T07:04:30.345Z,69.60
2022-11-26T07:06:57.600Z,73.97
2022-11-26T07:09:25.005Z,62.83
2022-11-26T07:11:52.435Z,68.07
2022-11-26T07:14:19.441Z,69.75
2022-11-26T07:16:46.744Z,65.18
2022-11-26T07:19:14.540Z,75.65
2022-11-26T07:21:42.231Z,69.68
2022-11-26T07:24:09.288Z,59.13
2022-11-26T07:26:36.584Z,60.65
2022-11-26T07:29:03.759Z,65.38
2022-11-26T07:31:31.148Z,73.50
2022-11-26T07:33:58.270Z,67.75
2022-11-26T07:36:29.028Z,73.78
2022-11-26T07:39:01.078Z,68.55
2022-11-26T07:41:29.402Z,75.45
2022-11-26T07:43:56.497Z,64.82
2022-11-26T07:46:26.127Z,67.55
2022-11-26T07:48:54.895Z,75.68
2022-11-26T07:51:33.099Z,72.72
2022-11-26T07:54:05.301Z,68.82
2022-11-26T07:56:32.740Z,122.53
2022-11-26T07:59:01.270Z,95.10
2022-11-26T08:01:29.898Z,80.88
2022-11-26T08:03:58.778Z,77.88
2022-11-26T08:06:28.906Z,133.18
2022-11-26T08:08:55.962Z,79.82
2022-11-26T08:11:25.576Z,296.90
2022-11-26T08:13:58.060Z,244.25
2022-11-26T08:16:28.699Z,213.77
2022-11-26T08:19:05.130Z,92.63
2022-11-26T08:21:33.257Z,95.03
2022-11-26T08:24:02.912Z,120.03
2022-11-26T08:26:35.054Z,87.13
2022-11-26T08:29:04.270Z,90.37
2022-11-26T08:31:32.033Z,89.53
2022-11-26T08:34:00.889Z,72.30
2022-11-26T08:36:29.164Z,83.88
2022-11-26T08:39:00.407Z,74.18
2022-11-26T08:41:28.010Z,92.82
2022-11-26T08:44:10.404Z,83.72
2022-11-26T08:46:42.140Z,75.72
2022-11-26T08:49:12.296Z,89.22
2022-11-26T08:51:39.639Z,101.15
2022-11-26T08:54:06.907Z,81.50
2022-11-26T08:56:34.679Z,82.63
2022-11-26T08:59:02.230Z,77.05
2022-11-26T09:01:35.144Z,92.15
2022-11-26T09:04:03.675Z,70.70
2022-11-26T09:06:33.371Z,95.88
2022-11-26T09:09:13.579Z,114.60
2022-11-26T09:11:50.159Z,69.20
2022-11-26T09:14:20.312Z,65.68
2022-11-26T09:16:47.965Z,72.82
2022-11-26T09:19:16.218Z,91.07
2022-11-26T09:21:44.454Z,65.47
2022-11-26T09:24:12.449Z,79.85
2022-11-26T09:26:40.244Z,70.07
2022-11-26T09:29:07.329Z,86.35
2022-11-26T09:31:34.581Z,79.68
2022-11-26T09:34:03.714Z,105.22
2022-11-26T09:36:31.015Z,98.93
2022-11-26T09:38:59.442Z,487.60
2022-11-26T09:41:32.570Z,116.60
2022-11-26T09:44:11.256Z,100.28
2022-11-26T09:47:11.150Z,110.15
2022-11-26T09:49:55.276Z,95.70
2022-11-26T09:52:26.473Z,88.63
2022-11-26T09:55:02.524Z,93.90
2022-11-26T09:57:38.745Z,89.07
2022-11-26T10:00:31.094Z,89.43
2022-11-26T10:02:58.954Z,86.65
2022-11-26T10:05:42.312Z,89.78
2022-11-26T10:08:52.747Z,104.63
2022-11-26T10:11:29.918Z,67.38
2022-11-26T10:14:25.974Z,75.25
2022-11-26T10:20:00.297Z,76.95
2022-11-26T10:22:30.044Z,113.22
2022-11-26T10:24:59.868Z,89.53
2022-11-26T10:27:32.769Z,230.38
2022-11-26T10:30:07.285Z,167.43
2022-11-26T10:32:43.385Z,83.95
2022-11-26T10:35:22.489Z,83.05
2022-11-26T10:37:50.410Z,68.00
2022-11-26T10:40:31.528Z,69.93
2022-11-26T10:43:10.321Z,80.07
2022-11-26T10:45:43.357Z,68.57
2022-11-26T10:48:28.765Z,65.05
2022-11-26T10:50:58.055Z,63.97
2022-11-26T10:53:27.249Z,76.70
2022-11-26T10:56:03.494Z,64.68
2022-11-26T10:58:37.621Z,73.82
2022-11-26T11:01:06.954Z,59.95
2022-11-26T11:04:07.273Z,68.55
2022-11-26T11:06:41.537Z,61.05
2022-11-26T11:09:41.080Z,48.38
2022-11-26T11:12:11.244Z,61.38
2022-11-26T11:14:45.646Z,79.28
2022-11-26T11:19:46.424Z,61.40
2022-11-26T11:22:21.050Z,65.00
2022-11-26T11:24:49.228Z,70.25
2022-11-26T11:27:39.433Z,64.25
2022-11-26T11:30:08.204Z,62.35
2022-11-26T11:32:40.348Z,71.18
2022-11-26T11:35:33.499Z,87.55
2022-11-26T11:38:00.837Z,66.25
2022-11-26T11:40:30.537Z,61.35
2022-11-26T11:43:01.508Z,62.75
2022-11-26T11:45:42.559Z,54.83
2022-11-26T11:48:12.759Z,51.53
2022-11-26T11:50:49.329Z,48.50
2022-11-26T11:53:31.039Z,68.38
2022-11-26T11:56:42.879Z,62.00
2022-11-26T12:00:11.661Z,66.03
2022-11-26T12:02:59.687Z,73.75
2022-11-26T12:05:57.950Z,61.85
2022-11-26T12:08:52.292Z,67.28
2022-11-26T12:11:25.529Z,66.85
2022-11-26T12:13:59.783Z,169.80
2022-11-26T12:16:32.939Z,88.13
2022-11-26T12:19:12.667Z,74.13
2022-11-26T12:21:52.034Z,121.07
2022-11-26T12:24:28.698Z,97.15
2022-11-26T12:27:02.425Z,89.22
2022-11-26T12:29:41.912Z,108.38
2022-11-26T12:32:32.463Z,58.88
2022-11-26T12:35:05.061Z,58.05
2022-11-26T12:37:39.105Z,62.47
2022-11-26T12:40:22.887Z,57.88
2022-11-26T12:43:01.371Z,78.50
2022-11-26T12:45:52.656Z,125.18
2022-11-26T12:48:43.378Z,117.47
2022-11-26T12:51:20.049Z,52.67
2022-11-26T12:54:07.114Z,77.35
2022-11-26T12:56:56.432Z,64.43
2022-11-26T12:59:45.635Z,79.95
2022-11-26T13:02:23.900Z,53.85
2022-11-26T13:04:52.732Z,58.65
2022-11-26T13:07:52.517Z,74.43
2022-11-26T13:10:38.566Z,81.50
2022-11-26T13:13:41.520Z,84.80
2022-11-26T13:16:36.952Z,83.10
2022-11-26T13:19:15.969Z,441.73
2022-11-26T13:22:02.849Z,118.32
2022-11-26T13:25:01.128Z,165.68
2022-11-26T13:27:57.425Z,145.75
2022-11-26T13:30:47.311Z,117.55
2022-11-26T13:33:45.857Z,107.38
2022-11-26T13:36:34.613Z,124.65
2022-11-26T13:39:27.905Z,403.90
2022-11-26T13:42:31.376Z,489.75
2022-11-26T13:45:17.640Z,421.13
2022-11-26T13:48:05.719Z,346.77
2022-11-26T13:50:50.910Z,388.00
2022-11-26T13:53:28.710Z,175.07
2022-11-26T13:56:01.242Z,215.95
2022-11-26T13:58:37.348Z,444.13
2022-11-26T14:01:28.017Z,547.38
2022-11-26T14:03:56.118Z,227.80
2022-11-26T14:06:28.242Z,213.65
2022-11-26T14:08:57.911Z,206.77
2022-11-26T14:11:46.274Z,175.38
2022-11-26T14:17:02.151Z,179.48
2022-11-26T14:19:41.523Z,205.18
2022-11-26T14:22:33.208Z,196.02
2022-11-26T14:25:01.904Z,192.23
2022-11-26T14:27:32.534Z,185.00
2022-11-26T14:30:19.045Z,201.43
2022-11-26T14:32:59.492Z,234.95
2022-11-26T14:35:34.440Z,170.20
2022-11-26T14:38:04.667Z,210.45
2022-11-26T14:40:35.051Z,209.20
2022-11-26T14:43:16.469Z,174.70
2022-11-26T14:46:15.236Z,207.00
2022-11-26T14:48:45.658Z,240.45
2022-11-26T14:51:22.051Z,225.18
2022-11-26T14:53:54.083Z,253.35
2022-11-26T14:56:24.035Z,253.73
2022-11-26T14:58:58.522Z,191.52
2022-11-26T15:01:27.524Z,102.43
2022-11-26T15:03:58.454Z,126.88
2022-11-26T15:06:28.726Z,153.32
2022-11-26T15:09:15.926Z,153.60
2022-11-26T15:11:48.728Z,117.85
2022-11-26T15:14:49.905Z,133.15
2022-11-26T15:17:20.447Z,128.02
2022-11-26T15:19:51.791Z,155.00
2022-11-26T15:22:38.462Z,132.65
2022-11-26T15:25:19.508Z,137.13
2022-11-26T15:28:16.024Z,130.27
2022-11-26T15:31:00.111Z,131.60
2022-11-26T15:33:29.463Z,108.00
2022-11-26T15:35:57.955Z,109.93
2022-11-26T15:38:34.316Z,121.53
2022-11-26T15:41:28.346Z,130.20
2022-11-26T15:43:58.899Z,118.93
2022-11-26T15:46:30.954Z,114.55
2022-11-26T15:48:59.499Z,104.88
2022-11-26T15:51:35.401Z,120.75
2022-11-26T15:54:30.870Z,111.60
2022-11-26T15:57:27.373Z,117.38
2022-11-26T15:59:59.314Z,115.80
2022-11-26T16:02:28.641Z,128.95
2022-11-26T16:05:00.588Z,133.48
2022-11-26T16:07:30.914Z,124.57
2022-11-26T16:10:16.255Z,112.50
2022-11-26T16:12:45.073Z,105.53
2022-11-26T16:15:21.250Z,135.70
2022-11-26T16:17:50.127Z,136.18
2022-11-26T16:20:26.498Z,205.80
2022-11-26T16:22:58.704Z,159.70
2022-11-26T16:25:34.582Z,117.40
2022-11-26T16:28:08.237Z,98.53
2022-11-26T16:30:36.230Z,108.07
2022-11-26T16:33:04.885Z,136.05
2022-11-26T16:35:47.854Z,134.82
2022-11-26T16:38:25.456Z,125.85
2022-11-26T16:40:53.364Z,115.97
2022-11-26T16:43:21.817Z,126.07
2022-11-26T16:45:54.408Z,220.55
2022-11-26T16:48:25.601Z,117.75
2022-11-26T16:50:56.483Z,93.65
2022-11-26T16:53:24.165Z,107.53
2022-11-26T16:55:53.934Z,102.93
2022-11-26T16:58:33.065Z,120.10
2022-11-26T17:01:00.419Z,108.78
2022-11-26T17:03:32.718Z,96.25
2022-11-26T17:06:03.483Z,97.72
2022-11-26T17:08:30.885Z,97.75
2022-11-26T17:10:58.308Z,96.63
2022-11-26T17:13:27.481Z,120.03
2022-11-26T17:15:55.322Z,126.93
2022-11-26T17:18:24.836Z,115.32
2022-11-26T17:20:53.962Z,129.75
2022-11-26T17:23:21.433Z,105.28
2022-11-26T17:25:53.962Z,259.85
2022-11-26T17:28:23.171Z,244.93
2022-11-26T17:30:50.940Z,177.25
2022-11-26T17:33:19.195Z,218.45
2022-11-26T17:35:46.752Z,235.00
2022-11-26T17:38:17.088Z,150.27
2022-11-26T17:40:44.744Z,129.23
2022-11-26T17:43:12.954Z,125.18
2022-11-26T17:45:43.065Z,128.48
2022-11-26T17:48:14.628Z,135.73
2022-11-26T17:50:42.600Z,118.80
2022-11-26T17:53:10.086Z,136.00
2022-11-26T17:55:38.082Z,111.20
2022-11-26T17:58:05.445Z,111.13
2022-11-26T18:00:32.692Z,110.40
2022-11-26T18:03:03.013Z,110.50
2022-11-26T18:05:30.181Z,127.10
2022-11-26T18:07:57.569Z,120.68
2022-11-26T18:10:24.717Z,144.38
2022-11-26T18:12:55.325Z,144.70
2022-11-26T18:15:25.456Z,170.60
2022-11-26T18:17:54.727Z,142.50
2022-11-26T18:20:25.931Z,131.30
2022-11-26T18:22:55.128Z,127.50
2022-11-26T18:25:22.828Z,152.82
2022-11-26T18:27:50.290Z,141.60
2022-11-26T18:30:18.013Z,157.27
2022-11-26T18:32:46.158Z,129.65
2022-11-26T18:35:13.536Z,122.65
2022-11-26T18:37:41.361Z,135.02
2022-11-26T18:40:12.183Z,117.30
2022-11-26T18:42:39.775Z,124.32
2022-11-26T18:45:09.531Z,158.68
2022-11-26T18:47:37.682Z,152.85
2022-11-26T18:50:05.459Z,166.48
2022-11-26T18:52:32.743Z,151.73
2022-11-26T18:55:00.053Z,171.52
2022-11-26T18:57:28.080Z,171.88
2022-11-26T18:59:55.072Z,174.02
2022-11-26T19:02:22.540Z,157.70
2022-11-26T19:04:50.334Z,183.35
2022-11-26T19:07:17.682Z,151.18
2022-11-26T19:09:44.667Z,121.25
2022-11-26T19:12:14.984Z,139.98
2022-11-26T19:14:42.078Z,195.13
2022-11-26T19:17:09.919Z,179.70
2022-11-26T19:19:38.294Z,155.52
2022-11-26T19:22:06.243Z,166.38
2022-11-26T19:24:33.311Z,157.50
2022-11-26T19:27:00.657Z,202.63
2022-11-26T19:29:27.885Z,205.70
2022-11-26T19:31:55.573Z,171.50
2022-11-26T19:34:22.817Z,163.43
2022-11-26T19:36:53.280Z,182.45
2022-11-26T19:39:20.412Z,178.95
2022-11-26T19:41:48.121Z,202.75
2022-11-26T19:44:19.223Z,173.57
2022-11-26T19:46:48.356Z,215.15
2022-11-26T19:49:15.491Z,204.80
2022-11-26T19:51:43.048Z,218.40
2022-11-26T19:54:10.392Z,210.10
2022-11-26T19:56:38.375Z,191.00
2022-11-26T19:59:05.893Z,211.88
2022-11-26T20:01:34.633Z,183.60
2022-11-26T20:04:05.398Z,202.77
2022-11-26T20:06:34.393Z,159.27
2022-11-26T20:09:02.712Z,161.43
2022-11-26T20:11:30.159Z,154.18
2022-11-26T20:13:58.404Z,191.43
2022-11-26T20:16:28.432Z,188.60
2022-11-26T20:18:56.687Z,164.05
2022-11-26T20:21:26.149Z,197.55
2022-11-26T20:23:57.413Z,172.20
2022-11-26T20:26:27.889Z,163.68
2022-11-26T20:28:56.847Z,146.70
2022-11-26T20:31:24.644Z,177.23
2022-11-26T20:33:53.014Z,285.60
2022-11-26T20:36:22.972Z,192.95
2022-11-26T20:39:00.566Z,170.23
2022-11-26T20:41:29.103Z,166.82
2022-11-26T20:43:59.346Z,172.43
2022-11-26T20:46:28.691Z,174.40
2022-11-26T20:48:56.382Z,197.15
2022-11-26T20:51:24.971Z,190.15
2022-11-26T20:53:52.912Z,186.00
2022-11-26T20:56:21.416Z,183.13
2022-11-26T20:58:49.118Z,179.20
2022-11-26T21:01:17.675Z,212.55
2022-11-26T21:03:45.132Z,173.85
2022-11-26T21:06:14.108Z,179.13
2022-11-26T21:08:42.025Z,185.25
2022-11-26T21:11:16.089Z,188.65
2022-11-26T21:13:43.746Z,187.13
2022-11-26T21:16:14.688Z,177.13
2022-11-26T21:18:45.117Z,212.63
2022-11-26T21:21:15.026Z,194.20
2022-11-26T21:23:45.998Z,219.95
2022-11-26T21:26:17.517Z,204.55
2022-11-26T21:28:44.948Z,208.73
2022-11-26T21:31:17.214Z,201.20
2022-11-26T21:34:05.915Z,234.02
2022-11-26T21:36:35.499Z,249.35
2022-11-26T21:39:06.491Z,227.98
2022-11-26T21:41:33.968Z,209.10
2022-11-26T21:44:04.372Z,243.93
2022-11-26T21:46:37.847Z,214.20
2022-11-26T21:49:06.985Z,212.38
2022-11-26T21:51:34.272Z,217.23
2022-11-26T21:54:01.281Z,245.93
2022-11-26T21:56:31.001Z,227.45
2022-11-26T21:58:59.647Z,203.73
2022-11-26T22:01:32.418Z,194.18
2022-11-26T22:04:01.788Z,196.60
2022-11-26T22:06:29.633Z,215.18
2022-11-26T22:08:56.887Z,186.02
2022-11-26T22:11:27.155Z,232.65
2022-11-26T22:13:55.045Z,204.05
2022-11-26T22:16:23.891Z,209.10
2022-11-26T22:18:51.616Z,236.05
2022-11-26T22:21:22.722Z,213.60
2022-11-26T22:23:51.067Z,245.43
2022-11-26T22:26:19.740Z,192.23
2022-11-26T22:28:52.394Z,197.32
2022-11-26T22:31:33.803Z,211.90
2022-11-26T22:34:03.627Z,197.38
2022-11-26T22:36:31.899Z,196.35
2022-11-26T22:38:59.921Z,261.30
2022-11-26T22:41:30.011Z,207.02
2022-11-26T22:43:59.758Z,195.93
2022-11-26T22:46:27.206Z,174.57
2022-11-26T22:48:57.087Z,203.40
2022-11-26T22:51:26.311Z,179.65
2022-11-26T22:53:56.363Z,217.32
2022-11-26T22:56:24.889Z,207.57
2022-11-26T22:58:51.991Z,216.63
2022-11-26T23:01:22.201Z,174.40
2022-11-26T23:03:50.134Z,172.52
2022-11-26T23:06:19.449Z,689.72
2022-11-26T23:08:47.131Z,1765.35
2022-11-26T23:11:23.671Z,1999.90
2022-11-26T23:13:51.563Z,974.33
2022-11-26T23:16:20.797Z,447.13
2022-11-26T23:18:48.174Z,303.70
2022-11-26T23:21:30.308Z,252.57
2022-11-26T23:23:57.760Z,183.82
2022-11-26T23:26:32.136Z,198.95
2022-11-26T23:29:01.424Z,222.38
2022-11-26T23:31:31.594Z,267.65
2022-11-26T23:34:00.900Z,209.90
2022-11-26T23:36:29.320Z,210.52
2022-11-26T23:38:56.776Z,198.90
2022-11-26T23:41:24.112Z,189.55
2022-11-26T23:43:51.272Z,188.90
2022-11-26T23:46:21.546Z,190.70
2022-11-26T23:48:49.289Z,190.68
2022-11-26T23:51:19.498Z,175.02
2022-11-26T23:53:50.836Z,185.25
2022-11-26T23:56:21.424Z,172.23
2022-11-26T23:58:50.399Z,187.68
